createdAt,value
2022-12-14T00:00:49.913Z,-7.72
2022-12-14T00:01:49.853Z,-7.72
2022-12-14T00:02:49.888Z,-7.73
2022-12-14T00:03:49.835Z,-7.76
2022-12-14T00:04:49.838Z,-7.78
2022-12-14T00:05:49.769Z,-7.76
2022-12-14T00:06:49.978Z,-7.76
2022-12-14T00:07:49.742Z,-7.75
2022-12-14T00:08:49.757Z,-7.76
2022-12-14T00:09:49.738Z,-7.75
2022-12-14T00:10:49.718Z,-7.82
2022-12-14T00:11:49.709Z,-7.82
2022-12-14T00:12:49.719Z,-7.89
2022-12-14T00:13:49.691Z,-7.93
2022-12-14T00:14:49.691Z,-7.99
2022-12-14T00:15:49.697Z,-8.01
2022-12-14T00:16:49.658Z,-8.02
2022-12-14T00:17:49.653Z,-8.06
2022-12-14T00:18:49.652Z,-8.06
2022-12-14T00:19:49.630Z,-8.05
2022-12-14T00:20:49.637Z,-8.08
2022-12-14T00:21:49.615Z,-8.08
2022-12-14T00:22:49.606Z,-8.11
2022-12-14T00:23:49.609Z,-8.11
2022-12-14T00:24:49.598Z,-8.09
2022-12-14T00:25:49.559Z,-8.08
2022-12-14T00:26:49.580Z,-8.01
2022-12-14T00:27:49.541Z,-7.97
2022-12-14T00:28:49.532Z,-8.01
2022-12-14T00:29:49.527Z,-8.06
2022-12-14T00:30:52.789Z,-8.11
2022-12-14T00:31:50.576Z,-8.12
2022-12-14T00:32:49.553Z,-8.15
2022-12-14T00:33:49.484Z,-8.15
2022-12-14T00:34:49.477Z,-8.18
2022-12-14T00:35:49.454Z,-8.21
2022-12-14T00:36:49.479Z,-8.27
2022-12-14T00:37:49.500Z,-8.31
2022-12-14T00:38:49.433Z,-8.33
2022-12-14T00:39:49.434Z,-8.34
2022-12-14T00:40:49.432Z,-8.36
2022-12-14T00:41:49.426Z,-8.30
2022-12-14T00:42:49.400Z,-8.30
2022-12-14T00:43:49.865Z,-8.30
2022-12-14T00:44:49.544Z,-8.31
2022-12-14T00:45:49.361Z,-8.30
2022-12-14T00:46:49.399Z,-8.30
2022-12-14T00:47:49.355Z,-8.30
2022-12-14T00:48:49.354Z,-8.31
2022-12-14T00:49:49.334Z,-8.34
2022-12-14T00:50:49.334Z,-8.36
2022-12-14T00:51:49.299Z,-8.37
2022-12-14T00:52:49.328Z,-8.40
2022-12-14T00:53:49.290Z,-8.39
2022-12-14T00:54:49.292Z,-8.37
2022-12-14T00:55:49.749Z,-8.36
2022-12-14T00:56:49.265Z,-8.40
2022-12-14T00:57:49.249Z,-8.40
2022-12-14T00:58:49.248Z,-8.39
2022-12-14T00:59:49.242Z,-8.42
2022-12-14T01:00:49.243Z,-8.44
2022-12-14T01:01:49.352Z,-8.39
2022-12-14T01:02:49.283Z,-8.34
2022-12-14T01:03:49.231Z,-8.36
2022-12-14T01:04:49.228Z,-8.36
2022-12-14T01:05:49.607Z,-8.36
2022-12-14T01:06:49.174Z,-8.37
2022-12-14T01:07:49.146Z,-8.36
2022-12-14T01:08:49.192Z,-8.36
2022-12-14T01:09:49.126Z,-8.34
2022-12-14T01:10:49.154Z,-8.36
2022-12-14T01:11:49.114Z,-8.37
2022-12-14T01:12:49.118Z,-8.40
2022-12-14T01:13:49.775Z,-8.42
2022-12-14T01:14:49.094Z,-8.50
2022-12-14T01:15:49.127Z,-8.50
2022-12-14T01:16:49.066Z,-8.57
2022-12-14T01:17:49.038Z,-8.60
2022-12-14T01:18:49.042Z,-8.62
2022-12-14T01:19:49.274Z,-8.63
2022-12-14T01:20:49.034Z,-8.65
2022-12-14T01:21:48.998Z,-8.62
2022-12-14T01:22:49.003Z,-8.60
2022-12-14T01:23:49.012Z,-8.60
2022-12-14T01:24:48.987Z,-8.58
2022-12-14T01:25:49.037Z,-8.55
2022-12-14T01:26:48.961Z,-8.48
2022-12-14T01:27:48.948Z,-8.39
2022-12-14T01:28:48.938Z,-8.44
2022-12-14T01:29:48.938Z,-8.45
2022-12-14T01:30:49.015Z,-8.44
2022-12-14T01:31:48.943Z,-8.47
2022-12-14T01:32:48.919Z,-8.50
2022-12-14T01:33:48.907Z,-8.52
2022-12-14T01:34:48.901Z,-8.55
2022-12-14T01:35:48.875Z,-8.58
2022-12-14T01:36:48.864Z,-8.57
2022-12-14T01:37:49.121Z,-8.54
2022-12-14T01:38:48.838Z,-8.52
2022-12-14T01:39:49.082Z,-8.52
2022-12-14T01:40:48.843Z,-8.54
2022-12-14T01:41:48.804Z,-8.58
2022-12-14T01:42:48.803Z,-8.60
2022-12-14T01:43:49.059Z,-8.66
2022-12-14T01:44:48.796Z,-8.69
2022-12-14T01:45:48.778Z,-8.68
2022-12-14T01:46:48.811Z,-8.68
2022-12-14T01:47:48.771Z,-8.66
2022-12-14T01:48:48.782Z,-8.54
2022-12-14T01:49:48.745Z,-8.42
2022-12-14T01:50:48.745Z,-8.40
2022-12-14T01:51:48.702Z,-8.39
2022-12-14T01:52:48.722Z,-8.45
2022-12-14T01:53:48.688Z,-8.51
2022-12-14T01:54:48.936Z,-8.52
2022-12-14T01:55:48.853Z,-8.55
2022-12-14T01:56:48.678Z,-8.57
2022-12-14T01:57:48.646Z,-8.57
2022-12-14T01:58:48.665Z,-8.58
2022-12-14T01:59:48.653Z,-8.60
2022-12-14T02:00:48.634Z,-8.62
2022-12-14T02:01:48.725Z,-8.65
2022-12-14T02:02:48.702Z,-8.66
2022-12-14T02:03:48.638Z,-8.69
2022-12-14T02:04:48.595Z,-8.69
2022-12-14T02:05:48.589Z,-8.70
2022-12-14T02:06:48.580Z,-8.73
2022-12-14T02:07:48.913Z,-8.73
2022-12-14T02:08:48.574Z,-8.73
2022-12-14T02:09:48.579Z,-8.76
2022-12-14T02:10:48.845Z,-8.73
2022-12-14T02:11:48.544Z,-8.75
2022-12-14T02:12:48.502Z,-8.72
2022-12-14T02:13:48.989Z,-8.76
2022-12-14T02:14:48.499Z,-8.80
2022-12-14T02:15:48.503Z,-8.81
2022-12-14T02:16:48.479Z,-8.78
2022-12-14T02:17:48.447Z,-8.75
2022-12-14T02:18:48.451Z,-8.78
2022-12-14T02:19:48.442Z,-8.78
2022-12-14T02:20:48.447Z,-8.78
2022-12-14T02:21:48.407Z,-8.83
2022-12-14T02:22:48.421Z,-8.83
2022-12-14T02:23:48.397Z,-8.76
2022-12-14T02:24:48.402Z,-8.80
2022-12-14T02:25:49.363Z,-8.80
2022-12-14T02:26:48.395Z,-8.84
2022-12-14T02:27:48.352Z,-8.89
2022-12-14T02:28:48.351Z,-8.90
2022-12-14T02:29:48.331Z,-8.96
2022-12-14T02:30:48.342Z,-8.98
2022-12-14T02:31:48.947Z,-9.04
2022-12-14T02:32:48.314Z,-9.07
2022-12-14T02:33:48.310Z,-9.04
2022-12-14T02:34:48.295Z,-9.02
2022-12-14T02:35:48.274Z,-9.02
2022-12-14T02:36:48.310Z,-9.04
2022-12-14T02:37:49.027Z,-9.05
2022-12-14T02:38:48.277Z,-9.04
2022-12-14T02:39:48.227Z,-9.00
2022-12-14T02:40:48.238Z,-9.01
2022-12-14T02:41:48.248Z,-8.96
2022-12-14T02:42:48.220Z,-8.96
2022-12-14T02:43:48.198Z,-8.96
2022-12-14T02:44:48.205Z,-8.98
2022-12-14T02:45:48.175Z,-8.98
2022-12-14T02:46:50.543Z,-9.00
2022-12-14T02:47:48.149Z,-8.93
2022-12-14T02:48:48.148Z,-8.93
2022-12-14T02:49:49.124Z,-8.93
2022-12-14T02:50:48.149Z,-8.94
2022-12-14T02:51:48.093Z,-8.96
2022-12-14T02:52:48.119Z,-9.00
2022-12-14T02:53:48.100Z,-8.98
2022-12-14T02:54:48.102Z,-8.93
2022-12-14T02:55:48.090Z,-8.94
2022-12-14T02:56:48.094Z,-8.93
2022-12-14T02:57:48.076Z,-8.96
2022-12-14T02:58:48.062Z,-8.91
2022-12-14T02:59:48.046Z,-8.93
2022-12-14T03:00:48.082Z,-8.96
2022-12-14T03:01:48.227Z,-8.91
2022-12-14T03:02:48.233Z,-8.91
2022-12-14T03:03:47.996Z,-8.93
2022-12-14T03:04:48.050Z,-8.98
2022-12-14T03:05:47.980Z,-9.01
2022-12-14T03:06:47.983Z,-9.05
2022-12-14T03:07:48.898Z,-9.07
2022-12-14T03:08:47.951Z,-9.01
2022-12-14T03:09:47.933Z,-8.98
2022-12-14T03:10:47.959Z,-8.94
2022-12-14T03:11:47.930Z,-8.91
2022-12-14T03:12:48.133Z,-8.94
2022-12-14T03:13:49.200Z,-8.96
2022-12-14T03:14:47.930Z,-9.00
2022-12-14T03:15:47.878Z,-9.04
2022-12-14T03:16:47.905Z,-9.04
2022-12-14T03:17:49.065Z,-9.10
2022-12-14T03:18:47.867Z,-9.14
2022-12-14T03:19:49.001Z,-9.18
2022-12-14T03:20:47.838Z,-9.23
2022-12-14T03:21:47.832Z,-9.28
2022-12-14T03:22:47.829Z,-9.28
2022-12-14T03:23:47.806Z,-9.30
2022-12-14T03:24:47.828Z,-9.33
2022-12-14T03:25:48.666Z,-9.30
2022-12-14T03:26:47.912Z,-9.32
2022-12-14T03:27:47.779Z,-9.29
2022-12-14T03:28:55.308Z,-9.28
2022-12-14T03:29:47.741Z,-9.22
2022-12-14T03:31:02.775Z,-9.18
2022-12-14T03:31:50.559Z,-9.12
2022-12-14T03:32:47.699Z,-9.05
2022-12-14T03:33:47.743Z,-9.04
2022-12-14T03:34:47.688Z,-9.10
2022-12-14T03:35:47.692Z,-9.10
2022-12-14T03:36:47.683Z,-9.12
2022-12-14T03:37:52.815Z,-9.14
2022-12-14T03:38:48.653Z,-9.10
2022-12-14T03:39:47.730Z,-9.11
2022-12-14T03:40:47.624Z,-9.11
2022-12-14T03:41:48.779Z,-9.15
2022-12-14T03:42:49.586Z,-9.18
2022-12-14T03:43:49.655Z,-9.22
2022-12-14T03:44:49.615Z,-9.26
2022-12-14T03:45:47.662Z,-9.30
2022-12-14T03:46:47.598Z,-9.36
2022-12-14T03:47:47.592Z,-9.36
2022-12-14T03:48:47.564Z,-9.39
2022-12-14T03:49:49.029Z,-9.39
2022-12-14T03:50:47.554Z,-9.44
2022-12-14T03:51:47.552Z,-9.45
2022-12-14T03:52:47.510Z,-9.41
2022-12-14T03:53:47.511Z,-9.40
2022-12-14T03:54:47.511Z,-9.44
2022-12-14T03:55:49.009Z,-9.48
2022-12-14T03:56:52.744Z,-9.48
2022-12-14T03:57:48.486Z,-9.54
2022-12-14T03:58:51.145Z,-9.59
2022-12-14T03:59:48.466Z,-9.62
2022-12-14T04:00:47.562Z,-9.54
2022-12-14T04:01:49.162Z,-9.58
2022-12-14T04:02:47.593Z,-9.52
2022-12-14T04:03:47.424Z,-9.52
2022-12-14T04:04:47.390Z,-9.52
2022-12-14T04:05:49.352Z,-9.56
2022-12-14T04:06:47.371Z,-9.54
2022-12-14T04:07:48.529Z,-9.51
2022-12-14T04:08:47.359Z,-9.51
2022-12-14T04:09:47.359Z,-9.48
2022-12-14T04:10:47.364Z,-9.44
2022-12-14T04:11:47.336Z,-9.29
2022-12-14T04:12:51.189Z,-9.20
2022-12-14T04:13:49.190Z,-9.11
2022-12-14T04:14:47.782Z,-9.11
2022-12-14T04:15:47.313Z,-9.15
2022-12-14T04:16:47.319Z,-9.19
2022-12-14T04:17:47.304Z,-9.19
2022-12-14T04:18:47.249Z,-9.19
2022-12-14T04:19:49.217Z,-9.12
2022-12-14T04:20:47.268Z,-9.08
2022-12-14T04:21:47.253Z,-9.04
2022-12-14T04:22:47.214Z,-9.04
2022-12-14T04:23:47.244Z,-9.11
2022-12-14T04:24:47.224Z,-9.19
2022-12-14T04:25:47.227Z,-9.12
2022-12-14T04:26:47.192Z,-9.07
2022-12-14T04:27:47.202Z,-8.98
2022-12-14T04:28:47.172Z,-8.93
2022-12-14T04:29:47.596Z,-8.91
2022-12-14T04:30:47.139Z,-9.01
2022-12-14T04:31:47.193Z,-9.08
2022-12-14T04:32:47.213Z,-9.11
2022-12-14T04:33:47.128Z,-9.19
2022-12-14T04:34:47.110Z,-9.20
2022-12-14T04:35:47.118Z,-9.26
2022-12-14T04:36:47.086Z,-9.30
2022-12-14T04:37:48.776Z,-9.37
2022-12-14T04:38:47.075Z,-9.39
2022-12-14T04:39:47.060Z,-9.39
2022-12-14T04:40:47.057Z,-9.32
2022-12-14T04:41:47.063Z,-9.32
2022-12-14T04:42:47.039Z,-9.32
2022-12-14T04:43:49.153Z,-9.28
2022-12-14T04:44:47.026Z,-9.19
2022-12-14T04:45:47.079Z,-9.22
2022-12-14T04:46:46.984Z,-9.23
2022-12-14T04:47:46.977Z,-9.29
2022-12-14T04:48:46.972Z,-9.37
2022-12-14T04:49:46.959Z,-9.37
2022-12-14T04:50:46.950Z,-9.37
2022-12-14T04:51:46.954Z,-9.41
2022-12-14T04:52:46.943Z,-9.41
2022-12-14T04:53:46.953Z,-9.39
2022-12-14T04:54:46.939Z,-9.41
2022-12-14T04:55:46.929Z,-9.50
2022-12-14T04:56:47.019Z,-9.48
2022-12-14T04:57:46.902Z,-9.51
2022-12-14T04:58:46.883Z,-9.54
2022-12-14T04:59:46.881Z,-9.59
2022-12-14T05:00:46.946Z,-9.63
2022-12-14T05:01:49.183Z,-9.68
2022-12-14T05:02:46.922Z,-9.68
2022-12-14T05:03:46.856Z,-9.72
2022-12-14T05:04:46.846Z,-9.77
2022-12-14T05:05:46.823Z,-9.79
2022-12-14T05:06:46.808Z,-9.84
2022-12-14T05:07:46.808Z,-9.89
2022-12-14T05:08:46.814Z,-9.90
2022-12-14T05:09:46.810Z,-9.92
2022-12-14T05:10:46.753Z,-9.97
2022-12-14T05:11:54.684Z,-9.97
2022-12-14T05:12:47.723Z,-10.01
2022-12-14T05:13:49.071Z,-9.92
2022-12-14T05:14:46.742Z,-9.87
2022-12-14T05:15:46.714Z,-9.80
2022-12-14T05:16:48.962Z,-9.72
2022-12-14T05:17:46.692Z,-9.74
2022-12-14T05:18:46.708Z,-9.77
2022-12-14T05:19:48.607Z,-9.72
2022-12-14T05:20:46.669Z,-9.74
2022-12-14T05:21:46.658Z,-9.72
2022-12-14T05:22:46.655Z,-9.68
2022-12-14T05:23:46.639Z,-9.69
2022-12-14T05:24:46.623Z,-9.65
2022-12-14T05:25:49.244Z,-9.66
2022-12-14T05:26:46.631Z,-9.68
2022-12-14T05:27:46.593Z,-9.71
2022-12-14T05:28:50.372Z,-9.71
2022-12-14T05:29:46.685Z,-9.74
2022-12-14T05:30:48.803Z,-9.76
2022-12-14T05:31:49.249Z,-9.77
2022-12-14T05:32:46.568Z,-9.81
2022-12-14T05:33:46.549Z,-9.84
2022-12-14T05:34:46.509Z,-9.86
2022-12-14T05:35:46.522Z,-9.86
2022-12-14T05:36:46.502Z,-9.89
2022-12-14T05:37:46.499Z,-9.90
2022-12-14T05:38:46.482Z,-9.92
2022-12-14T05:39:46.485Z,-9.94
2022-12-14T05:40:46.473Z,-9.87
2022-12-14T05:41:46.494Z,-9.76
2022-12-14T05:42:49.877Z,-9.56
2022-12-14T05:43:47.473Z,-9.44
2022-12-14T05:44:46.422Z,-9.37
2022-12-14T05:45:46.459Z,-9.28
2022-12-14T05:46:46.404Z,-9.32
2022-12-14T05:47:46.472Z,-9.30
2022-12-14T05:48:49.384Z,-9.39
2022-12-14T05:49:46.402Z,-9.44
2022-12-14T05:50:46.374Z,-9.47
2022-12-14T05:51:46.357Z,-9.50
2022-12-14T05:52:46.373Z,-9.51
2022-12-14T05:53:46.339Z,-9.59
2022-12-14T05:54:46.369Z,-9.63
2022-12-14T05:55:46.349Z,-9.68
2022-12-14T05:56:46.301Z,-9.71
2022-12-14T05:57:46.303Z,-9.69
2022-12-14T05:58:46.284Z,-9.71
2022-12-14T05:59:46.267Z,-9.74
2022-12-14T06:00:46.262Z,-9.74
2022-12-14T06:01:49.387Z,-9.72
2022-12-14T06:02:46.357Z,-9.79
2022-12-14T06:03:46.256Z,-9.81
2022-12-14T06:04:46.269Z,-9.80
2022-12-14T06:05:46.233Z,-9.76
2022-12-14T06:06:46.216Z,-9.72
2022-12-14T06:07:46.237Z,-9.69
2022-12-14T06:08:46.224Z,-9.63
2022-12-14T06:09:46.193Z,-9.59
2022-12-14T06:10:46.187Z,-9.54
2022-12-14T06:11:46.178Z,-9.51
2022-12-14T06:12:46.146Z,-9.51
2022-12-14T06:13:46.151Z,-9.54
2022-12-14T06:14:46.124Z,-9.58
2022-12-14T06:15:46.183Z,-9.66
2022-12-14T06:16:46.165Z,-9.74
2022-12-14T06:17:46.096Z,-9.74
2022-12-14T06:18:46.183Z,-9.71
2022-12-14T06:19:49.785Z,-9.66
2022-12-14T06:20:46.064Z,-9.63
2022-12-14T06:21:46.104Z,-9.58
2022-12-14T06:22:47.833Z,-9.58
2022-12-14T06:23:46.083Z,-9.62
2022-12-14T06:24:46.068Z,-9.69
2022-12-14T06:25:46.053Z,-9.72
2022-12-14T06:26:46.027Z,-9.77
2022-12-14T06:27:46.057Z,-9.80
2022-12-14T06:28:45.997Z,-9.80
2022-12-14T06:29:46.018Z,-9.81
2022-12-14T06:30:46.032Z,-9.81
2022-12-14T06:31:46.004Z,-9.83
2022-12-14T06:32:45.937Z,-9.83
2022-12-14T06:33:46.013Z,-9.84
2022-12-14T06:34:45.955Z,-9.84
2022-12-14T06:35:45.937Z,-9.83
2022-12-14T06:36:45.923Z,-9.81
2022-12-14T06:37:45.903Z,-9.83
2022-12-14T06:38:45.910Z,-9.84
2022-12-14T06:39:49.702Z,-9.94
2022-12-14T06:40:46.862Z,-9.95
2022-12-14T06:41:45.886Z,-9.97
2022-12-14T06:42:45.848Z,-10.05
2022-12-14T06:43:45.848Z,-10.10
2022-12-14T06:44:45.825Z,-10.10
2022-12-14T06:45:45.822Z,-10.02
2022-12-14T06:46:45.852Z,-10.00
2022-12-14T06:47:45.807Z,-9.92
2022-12-14T06:48:45.798Z,-9.84
2022-12-14T06:49:45.834Z,-9.81
2022-12-14T06:50:45.786Z,-9.77
2022-12-14T06:51:45.768Z,-9.77
2022-12-14T06:52:45.738Z,-9.74
2022-12-14T06:53:45.753Z,-9.74
2022-12-14T06:54:45.736Z,-9.74
2022-12-14T06:55:45.760Z,-9.66
2022-12-14T06:56:45.727Z,-9.62
2022-12-14T06:57:45.700Z,-9.61
2022-12-14T06:58:45.728Z,-9.58
2022-12-14T06:59:45.677Z,-9.54
2022-12-14T07:00:45.653Z,-9.50
2022-12-14T07:01:45.798Z,-9.51
2022-12-14T07:02:45.813Z,-9.50
2022-12-14T07:03:45.716Z,-9.52
2022-12-14T07:04:45.653Z,-9.54
2022-12-14T07:05:48.981Z,-9.54
2022-12-14T07:06:45.639Z,-9.51
2022-12-14T07:07:45.643Z,-9.51
2022-12-14T07:08:45.624Z,-9.51
2022-12-14T07:09:45.644Z,-9.50
2022-12-14T07:10:45.578Z,-9.51
2022-12-14T07:11:45.568Z,-9.58
2022-12-14T07:12:45.552Z,-9.56
2022-12-14T07:13:45.557Z,-9.63
2022-12-14T07:14:45.531Z,-9.66
2022-12-14T07:15:45.596Z,-9.68
2022-12-14T07:16:48.556Z,-9.62
2022-12-14T07:17:46.178Z,-9.54
2022-12-14T07:18:45.521Z,-9.51
2022-12-14T07:19:45.517Z,-9.48
2022-12-14T07:20:45.706Z,-9.39
2022-12-14T07:21:45.544Z,-9.39
2022-12-14T07:22:49.270Z,-9.40
2022-12-14T07:23:45.489Z,-9.44
2022-12-14T07:24:45.440Z,-9.39
2022-12-14T07:25:45.455Z,-9.30
2022-12-14T07:26:45.442Z,-9.25
2022-12-14T07:27:45.422Z,-9.22
2022-12-14T07:28:45.421Z,-9.20
2022-12-14T07:29:45.414Z,-9.20
2022-12-14T07:30:45.421Z,-9.22
2022-12-14T07:31:49.422Z,-9.26
2022-12-14T07:32:45.350Z,-9.29
2022-12-14T07:33:45.478Z,-9.30
2022-12-14T07:34:45.319Z,-9.36
2022-12-14T07:35:45.369Z,-9.33
2022-12-14T07:36:45.341Z,-9.30
2022-12-14T07:37:45.590Z,-9.28
2022-12-14T07:38:45.317Z,-9.25
2022-12-14T07:39:45.331Z,-9.25
2022-12-14T07:40:45.291Z,-9.23
2022-12-14T07:41:45.297Z,-9.22
2022-12-14T07:42:45.261Z,-9.26
2022-12-14T07:43:45.302Z,-9.29
2022-12-14T07:44:45.263Z,-9.29
2022-12-14T07:45:45.248Z,-9.30
2022-12-14T07:46:45.275Z,-9.28
2022-12-14T07:47:45.211Z,-9.22
2022-12-14T07:48:45.235Z,-9.18
2022-12-14T07:49:45.215Z,-9.14
2022-12-14T07:50:45.244Z,-9.11
2022-12-14T07:51:45.198Z,-9.04
2022-12-14T07:52:45.159Z,-9.02
2022-12-14T07:53:45.156Z,-9.00
2022-12-14T07:54:45.221Z,-8.89
2022-12-14T07:55:45.171Z,-8.89
2022-12-14T07:56:45.121Z,-8.90
2022-12-14T07:57:45.099Z,-8.84
2022-12-14T07:58:45.118Z,-8.86
2022-12-14T07:59:45.095Z,-8.83
2022-12-14T08:00:45.118Z,-8.80
2022-12-14T08:01:45.250Z,-8.78
2022-12-14T08:02:45.135Z,-8.73
2022-12-14T08:03:45.053Z,-8.73
2022-12-14T08:04:45.142Z,-8.73
2022-12-14T08:05:45.041Z,-8.72
2022-12-14T08:06:45.033Z,-8.68
2022-12-14T08:07:45.008Z,-8.70
2022-12-14T08:08:45.027Z,-8.72
2022-12-14T08:09:45.000Z,-8.70
2022-12-14T08:10:45.019Z,-8.70
2022-12-14T08:11:44.997Z,-8.72
2022-12-14T08:12:44.967Z,-8.73
2022-12-14T08:13:44.937Z,-8.75
2022-12-14T08:14:44.933Z,-8.76
2022-12-14T08:15:44.969Z,-8.78
2022-12-14T08:16:44.963Z,-8.73
2022-12-14T08:17:44.933Z,-8.73
2022-12-14T08:18:44.909Z,-8.75
2022-12-14T08:19:44.883Z,-8.78
2022-12-14T08:20:51.568Z,-8.80
2022-12-14T08:21:46.068Z,-8.75
2022-12-14T08:22:44.877Z,-8.75
2022-12-14T08:23:44.862Z,-8.73
2022-12-14T08:24:49.676Z,-8.69
2022-12-14T08:25:46.023Z,-8.66
2022-12-14T08:26:49.056Z,-8.65
2022-12-14T08:27:44.853Z,-8.68
2022-12-14T08:28:44.818Z,-8.69
2022-12-14T08:29:44.821Z,-8.69
2022-12-14T08:30:44.834Z,-8.70
2022-12-14T08:31:44.809Z,-8.69
2022-12-14T08:32:44.785Z,-8.73
2022-12-14T08:33:44.758Z,-8.70
2022-12-14T08:34:44.772Z,-8.70
2022-12-14T08:35:44.752Z,-8.73
2022-12-14T08:36:44.790Z,-8.72
2022-12-14T08:37:47.619Z,-8.72
2022-12-14T08:38:45.682Z,-8.72
2022-12-14T08:39:44.722Z,-8.70
2022-12-14T08:40:44.713Z,-8.68
2022-12-14T08:41:44.698Z,-8.66
2022-12-14T08:42:44.659Z,-8.62
2022-12-14T08:43:45.269Z,-8.58
2022-12-14T08:44:44.672Z,-8.52
2022-12-14T08:45:44.641Z,-8.50
2022-12-14T08:46:44.727Z,-8.47
2022-12-14T08:47:44.650Z,-8.44
2022-12-14T08:48:45.605Z,-8.40
2022-12-14T08:49:45.772Z,-8.39
2022-12-14T08:50:44.595Z,-8.34
2022-12-14T08:51:45.596Z,-8.31
2022-12-14T08:52:44.628Z,-8.34
2022-12-14T08:53:44.546Z,-8.30
2022-12-14T08:54:44.555Z,-8.27
2022-12-14T08:55:44.535Z,-8.27
2022-12-14T08:56:44.557Z,-8.27
2022-12-14T08:57:44.516Z,-8.29
2022-12-14T08:58:44.517Z,-8.30
2022-12-14T09:00:01.666Z,-8.29
2022-12-14T09:00:45.558Z,-8.27
2022-12-14T09:01:44.676Z,-8.29
2022-12-14T09:02:44.738Z,-8.27
2022-12-14T09:03:44.468Z,-8.23
2022-12-14T09:04:44.528Z,-8.23
2022-12-14T09:05:44.461Z,-8.15
2022-12-14T09:06:44.437Z,-8.11
2022-12-14T09:07:44.453Z,-7.99
2022-12-14T09:08:44.492Z,-7.93
2022-12-14T09:09:44.402Z,-7.86
2022-12-14T09:10:44.376Z,-7.79
2022-12-14T09:11:44.401Z,-7.80
2022-12-14T09:12:44.390Z,-7.82
2022-12-14T09:13:44.393Z,-7.86
2022-12-14T09:14:44.371Z,-7.83
2022-12-14T09:15:44.354Z,-7.83
2022-12-14T09:16:44.348Z,-7.86
2022-12-14T09:17:44.313Z,-7.89
2022-12-14T09:18:44.321Z,-7.91
2022-12-14T09:19:44.314Z,-7.97
2022-12-14T09:20:44.295Z,-7.99
2022-12-14T09:21:44.305Z,-8.01
2022-12-14T09:22:44.279Z,-7.97
2022-12-14T09:23:44.351Z,-8.02
2022-12-14T09:24:44.255Z,-8.06
2022-12-14T09:25:44.239Z,-8.13
2022-12-14T09:26:44.281Z,-8.18
2022-12-14T09:27:44.257Z,-8.19
2022-12-14T09:28:44.210Z,-8.16
2022-12-14T09:29:44.279Z,-8.16
2022-12-14T09:30:44.208Z,-8.18
2022-12-14T09:31:44.241Z,-8.18
2022-12-14T09:32:51.213Z,-8.18
2022-12-14T09:33:44.176Z,-8.19
2022-12-14T09:34:45.946Z,-8.19
2022-12-14T09:35:44.908Z,-8.27
2022-12-14T09:36:44.147Z,-8.29
2022-12-14T09:37:44.108Z,-8.29
2022-12-14T09:38:50.436Z,-8.27
2022-12-14T09:39:45.083Z,-8.27
2022-12-14T09:40:44.100Z,-8.27
2022-12-14T09:41:44.066Z,-8.30
2022-12-14T09:42:44.072Z,-8.26
2022-12-14T09:43:45.060Z,-8.24
2022-12-14T09:44:44.050Z,-8.21
2022-12-14T09:45:44.132Z,-8.23
2022-12-14T09:46:44.034Z,-8.21
2022-12-14T09:47:44.032Z,-8.19
2022-12-14T09:48:44.021Z,-8.21
2022-12-14T09:49:43.997Z,-8.16
2022-12-14T09:50:43.993Z,-8.11
2022-12-14T09:51:43.979Z,-8.05
2022-12-14T09:52:43.972Z,-7.97
2022-12-14T09:53:43.970Z,-7.87
2022-12-14T09:54:44.028Z,-7.83
2022-12-14T09:55:43.917Z,-7.80
2022-12-14T09:56:43.964Z,-7.80
2022-12-14T09:57:43.917Z,-7.78
2022-12-14T09:58:43.904Z,-7.71
2022-12-14T09:59:43.880Z,-7.60
2022-12-14T10:00:46.914Z,-7.52
2022-12-14T10:01:55.464Z,-7.40
2022-12-14T10:02:45.072Z,-7.31
2022-12-14T10:03:44.026Z,-7.22
2022-12-14T10:04:47.846Z,-7.15
2022-12-14T10:05:43.846Z,-7.02
2022-12-14T10:06:43.845Z,-6.92
2022-12-14T10:07:43.813Z,-6.77
2022-12-14T10:08:45.344Z,-6.66
2022-12-14T10:09:43.798Z,-6.59
2022-12-14T10:10:43.821Z,-6.52
2022-12-14T10:11:43.774Z,-6.40
2022-12-14T10:12:43.794Z,-6.28
2022-12-14T10:13:43.762Z,-6.16
2022-12-14T10:14:44.556Z,-6.01
2022-12-14T10:15:43.730Z,-5.87
2022-12-14T10:16:48.461Z,-5.71
2022-12-14T10:17:44.853Z,-5.59
2022-12-14T10:19:00.944Z,-5.46
2022-12-14T10:19:44.697Z,-5.35
2022-12-14T10:20:43.698Z,-5.25
2022-12-14T10:21:43.669Z,-5.14
2022-12-14T10:22:43.674Z,-5.04
2022-12-14T10:23:43.641Z,-4.93
2022-12-14T10:24:43.633Z,-4.83
2022-12-14T10:25:43.688Z,-4.69
2022-12-14T10:26:43.646Z,-4.65
2022-12-14T10:28:44.606Z,-4.61
2022-12-14T10:29:43.596Z,-4.51
2022-12-14T10:30:43.578Z,-4.42
2022-12-14T10:31:43.617Z,-4.30
2022-12-14T10:32:43.567Z,-4.15
2022-12-14T10:33:43.543Z,-4.00
2022-12-14T10:34:43.540Z,-3.94
2022-12-14T10:35:43.520Z,-3.88
2022-12-14T10:36:43.520Z,-3.81
2022-12-14T10:37:43.516Z,-3.78
2022-12-14T10:38:43.499Z,-3.75
2022-12-14T10:39:43.469Z,-3.76
2022-12-14T10:40:44.472Z,-3.78
2022-12-14T10:41:49.469Z,-3.75
2022-12-14T10:42:44.495Z,-3.79
2022-12-14T10:43:44.430Z,-3.81
2022-12-14T10:44:43.431Z,-3.81
2022-12-14T10:45:44.419Z,-3.75
2022-12-14T10:46:43.581Z,-3.59
2022-12-14T10:47:43.394Z,-3.45
2022-12-14T10:48:43.391Z,-3.42
2022-12-14T10:49:43.358Z,-3.45
2022-12-14T10:50:43.380Z,-3.45
2022-12-14T10:51:44.345Z,-3.38
2022-12-14T10:52:43.363Z,-3.27
2022-12-14T10:53:43.320Z,-3.15
2022-12-14T10:54:43.341Z,-3.09
2022-12-14T10:55:43.306Z,-3.00
2022-12-14T10:56:43.454Z,-2.89
2022-12-14T10:57:44.282Z,-2.81
2022-12-14T10:58:43.289Z,-2.68
2022-12-14T10:59:57.032Z,-2.55
2022-12-14T11:00:44.277Z,-2.52
2022-12-14T11:01:43.370Z,-2.49
2022-12-14T11:02:43.411Z,-2.43
2022-12-14T11:03:43.290Z,-2.27
2022-12-14T11:04:50.743Z,-2.26
2022-12-14T11:05:43.192Z,-2.20
2022-12-14T11:06:45.122Z,-2.16
2022-12-14T11:07:43.194Z,-2.13
2022-12-14T11:08:43.178Z,-2.00
2022-12-14T11:09:44.149Z,-1.88
2022-12-14T11:10:43.157Z,-1.70
2022-12-14T11:11:43.204Z,-1.51
2022-12-14T11:12:43.137Z,-1.34
2022-12-14T11:13:43.117Z,-1.22
2022-12-14T11:14:43.169Z,-1.07
2022-12-14T11:15:43.090Z,-0.95
2022-12-14T11:16:43.182Z,-0.91
2022-12-14T11:17:43.264Z,-0.86
2022-12-14T11:18:43.089Z,-0.82
2022-12-14T11:19:43.055Z,-0.72
2022-12-14T11:20:43.050Z,-0.65
2022-12-14T11:21:43.074Z,-0.57
2022-12-14T11:22:43.039Z,-0.51
2022-12-14T11:23:43.023Z,-0.37
2022-12-14T11:24:43.009Z,-0.29
2022-12-14T11:25:42.967Z,-0.26
2022-12-14T11:26:42.989Z,-0.29
2022-12-14T11:27:43.470Z,-0.33
2022-12-14T11:28:43.337Z,-0.31
2022-12-14T11:29:43.942Z,-0.21
2022-12-14T11:30:42.995Z,0.03
2022-12-14T11:31:42.914Z,0.14
2022-12-14T11:32:42.916Z,0.23
2022-12-14T11:33:42.899Z,0.24
2022-12-14T11:34:42.912Z,0.28
2022-12-14T11:35:42.851Z,0.33
2022-12-14T11:36:42.875Z,0.47
2022-12-14T11:37:42.860Z,0.57
2022-12-14T11:38:42.858Z,0.76
2022-12-14T11:39:42.872Z,0.98
2022-12-14T11:40:42.843Z,1.20
2022-12-14T11:41:42.801Z,1.32
2022-12-14T11:42:42.813Z,1.44
2022-12-14T11:43:42.806Z,1.54
2022-12-14T11:44:42.792Z,1.62
2022-12-14T11:45:42.763Z,1.62
2022-12-14T11:46:44.907Z,1.72
2022-12-14T11:47:42.751Z,1.84
2022-12-14T11:48:42.745Z,2.00
2022-12-14T11:49:42.738Z,2.02
2022-12-14T11:50:42.728Z,2.03
2022-12-14T11:51:42.746Z,2.05
2022-12-14T11:52:43.702Z,1.93
2022-12-14T11:53:42.750Z,1.79
2022-12-14T11:54:42.668Z,1.70
2022-12-14T11:55:43.687Z,1.72
2022-12-14T11:56:42.657Z,1.79
2022-12-14T11:57:42.660Z,1.81
2022-12-14T11:58:42.753Z,1.88
2022-12-14T11:59:42.623Z,1.93
2022-12-14T12:00:46.997Z,1.88
2022-12-14T12:01:42.700Z,1.88
2022-12-14T12:02:42.653Z,1.86
2022-12-14T12:03:42.651Z,1.84
2022-12-14T12:04:42.553Z,1.88
2022-12-14T12:05:42.563Z,1.95
2022-12-14T12:06:42.533Z,2.06
2022-12-14T12:07:42.593Z,2.03
2022-12-14T12:08:42.509Z,2.06
2022-12-14T12:09:42.527Z,1.93
2022-12-14T12:10:42.489Z,1.73
2022-12-14T12:11:42.508Z,1.72
2022-12-14T12:12:42.474Z,1.68
2022-12-14T12:13:42.467Z,1.83
2022-12-14T12:14:42.441Z,1.83
2022-12-14T12:15:42.530Z,1.80
2022-12-14T12:16:43.415Z,1.86
2022-12-14T12:17:42.428Z,1.99
2022-12-14T12:18:46.219Z,2.06
2022-12-14T12:19:42.464Z,2.16
2022-12-14T12:20:42.392Z,1.93
2022-12-14T12:21:42.374Z,1.76
2022-12-14T12:22:42.361Z,1.65
2022-12-14T12:23:42.355Z,1.72
2022-12-14T12:25:08.386Z,1.70
2022-12-14T12:25:43.348Z,1.87
2022-12-14T12:26:42.319Z,2.21
2022-12-14T12:27:42.323Z,2.52
2022-12-14T12:28:42.310Z,2.71
2022-12-14T12:29:42.639Z,2.72
2022-12-14T12:30:42.395Z,2.52
2022-12-14T12:31:42.306Z,2.46
2022-12-14T12:32:42.246Z,2.61
2022-12-14T12:33:42.253Z,2.69
2022-12-14T12:34:42.225Z,2.79
2022-12-14T12:35:42.251Z,2.82
2022-12-14T12:36:57.085Z,3.05
2022-12-14T12:37:43.194Z,3.24
2022-12-14T12:38:42.184Z,3.48
2022-12-14T12:39:42.183Z,3.52
2022-12-14T12:40:42.158Z,3.51
2022-12-14T12:41:42.159Z,3.72
2022-12-14T12:42:42.126Z,3.93
2022-12-14T12:43:42.211Z,3.94
2022-12-14T12:44:42.144Z,3.96
2022-12-14T12:45:42.145Z,4.09
2022-12-14T12:47:06.860Z,4.34
2022-12-14T12:47:47.773Z,4.54
2022-12-14T12:48:43.102Z,4.51
2022-12-14T12:49:42.068Z,4.47
2022-12-14T12:50:42.047Z,4.44
2022-12-14T12:51:42.056Z,4.22
2022-12-14T12:52:42.027Z,4.20
2022-12-14T12:53:42.043Z,4.04
2022-12-14T12:54:42.028Z,3.83
2022-12-14T12:55:42.016Z,3.68
2022-12-14T12:56:41.983Z,3.62